Time;durP1;ratioP1;P1;durP2;ratioP2;P2;SDS_P1;SDS_P2;PMS_P1;PMS_P2;Temp;Humidity;BMP_temperature;BMP_pressure;BME280_temperature;BME280_humidity;BME280_pressure;Samples;Min_cycle;Max_cycle;Signal;HPM_P1;HPM_P2
2021/12/08 00:01:08;;;;;;;41.33;23.17;;;;;;;-2.56;75.71;98728.05;2248309;79;20992;-80
2021/12/08 00:04:09;;;;;;;42.37;22.17;;;;;;;-2.51;75.66;98727.05;2249070;78;20961;-80
2021/12/08 00:07:09;;;;;;;43.33;23.47;;;;;;;-2.45;75.64;98718.08;2245146;78;21362;-79
2021/12/08 00:13:29;;;;;;;42.37;22.73;;;;;;;-2.29;75.38;98713.48;2229871;79;21053;-80
2021/12/08 00:16:29;;;;;;;46.07;25.17;;;;;;;-2.30;75.36;98716.83;2225932;78;20996;-79
2021/12/08 00:19:30;;;;;;;40.93;22.37;;;;;;;-2.33;75.11;98718.81;2251018;79;21040;-80
2021/12/08 00:22:31;;;;;;;43.57;23.90;;;;;;;-2.41;75.14;98717.47;2249546;78;21036;-79
2021/12/08 00:25:31;;;;;;;46.70;25.03;;;;;;;-2.40;75.31;98714.52;2214738;79;21056;-81
2021/12/08 00:28:32;;;;;;;50.10;25.27;;;;;;;-2.36;75.40;98722.86;2241267;79;21369;-81
2021/12/08 00:31:33;;;;;;;54.77;27.70;;;;;;;-2.40;74.97;98714.52;2199791;79;20970;-81
2021/12/08 00:34:34;;;;;;;47.23;25.33;;;;;;;-2.51;74.97;98714.27;2218411;79;21064;-82
2021/12/08 00:37:35;;;;;;;52.50;26.17;;;;;;;-2.57;74.94;98708.39;2240994;78;21086;-81
2021/12/08 00:40:35;;;;;;;56.67;26.20;;;;;;;-2.64;75.10;98712.22;2254386;79;21085;-81
2021/12/08 00:43:36;;;;;;;55.63;27.83;;;;;;;-2.63;75.27;98711.83;2244624;78;20965;-82
2021/12/08 00:46:37;;;;;;;52.73;28.10;;;;;;;-2.65;75.18;98710.45;2218928;79;20977;-81
2021/12/08 00:49:39;;;;;;;58.30;29.47;;;;;;;-2.66;75.36;98706.13;2247742;79;20997;-82
2021/12/08 00:52:39;;;;;;;56.23;28.03;;;;;;;-2.68;75.35;98705.55;2218069;79;21416;-81
2021/12/08 00:55:40;;;;;;;51.23;27.20;;;;;;;-2.67;75.37;98704.76;2241256;79;21009;-82
2021/12/08 00:58:40;;;;;;;50.13;26.87;;;;;;;-2.63;75.50;98704.16;2230500;79;20943;-81
2021/12/08 01:01:41;;;;;;;54.57;28.20;;;;;;;-2.58;75.35;98707.52;2245764;79;21381;-80
2021/12/08 01:04:41;;;;;;;63.37;29.67;;;;;;;-2.55;75.41;98709.77;2203016;78;21020;-81
2021/12/08 01:07:42;;;;;;;68.63;34.10;;;;;;;-2.55;75.27;98705.54;2212570;79;21002;-81
2021/12/08 01:10:42;;;;;;;66.50;34.13;;;;;;;-2.64;74.92;98699.44;2244821;78;20993;-81
2021/12/08 01:13:43;;;;;;;74.43;35.40;;;;;;;-2.72;74.79;98692.98;2225287;79;20998;-80
2021/12/08 01:16:43;;;;;;;65.90;33.97;;;;;;;-2.80;74.56;98691.64;2242231;79;20973;-81
2021/12/08 01:19:44;;;;;;;82.70;41.03;;;;;;;-2.87;74.23;98681.83;2207217;79;20996;-80
2021/12/08 01:22:44;;;;;;;80.57;36.47;;;;;;;-2.94;74.45;98689.91;2238377;79;20942;-82
2021/12/08 01:25:45;;;;;;;71.53;35.20;;;;;;;-2.94;74.45;98679.30;2233399;78;21413;-82
2021/12/08 01:28:45;;;;;;;75.93;37.77;;;;;;;-2.92;75.10;98681.55;2217237;79;21012;-81
2021/12/08 01:31:46;;;;;;;75.53;37.30;;;;;;;-2.86;75.25;98687.42;2225580;79;20966;-82
2021/12/08 01:34:47;;;;;;;77.70;38.03;;;;;;;-2.81;75.07;98682.20;2247756;79;21009;-81
2021/12/08 01:37:47;;;;;;;78.83;38.33;;;;;;;-2.76;75.16;98679.54;2251035;79;20978;-82
2021/12/08 01:40:48;;;;;;;77.57;38.27;;;;;;;-2.76;74.80;98672.27;2235449;78;21322;-81
2021/12/08 01:47:07;;;;;;;80.23;41.07;;;;;;;-2.92;75.01;98670.05;2205896;79;21358;-82
2021/12/08 01:50:08;;;;;;;90.70;41.00;;;;;;;-3.00;75.10;98674.20;2248775;78;21012;-81
2021/12/08 01:53:08;;;;;;;95.00;43.83;;;;;;;-3.13;75.42;98676.40;2240238;79;20977;-80
2021/12/08 01:56:08;;;;;;;82.83;40.73;;;;;;;-3.11;75.69;98678.66;2247907;79;20962;-81
2021/12/08 01:59:09;;;;;;;86.80;41.70;;;;;;;-3.16;75.87;98675.33;2238113;79;20973;-81
2021/12/08 02:02:10;;;;;;;92.37;41.13;;;;;;;-3.28;76.16;98673.77;2221482;79;21008;-82
2021/12/08 02:05:10;;;;;;;89.03;40.13;;;;;;;-3.37;76.42;98668.48;2230266;79;20986;-81
2021/12/08 02:08:11;;;;;;;84.00;37.50;;;;;;;-3.39;76.52;98673.50;2248103;79;21050;-82
2021/12/08 02:11:12;;;;;;;87.40;39.50;;;;;;;-3.32;76.67;98673.09;2248370;78;21380;-82
2021/12/08 02:14:12;;;;;;;87.53;39.93;;;;;;;-3.29;76.68;98672.01;2227065;79;21021;-84
2021/12/08 02:17:13;;;;;;;84.70;37.87;;;;;;;-3.23;76.58;98670.23;2214896;78;20997;-81
2021/12/08 02:20:13;;;;;;;78.27;36.77;;;;;;;-3.14;76.47;98663.14;2194591;79;21016;-81
2021/12/08 02:23:13;;;;;;;73.13;35.53;;;;;;;-3.09;76.34;98660.88;2213648;79;21016;-81
2021/12/08 02:26:14;;;;;;;75.67;35.17;;;;;;;-3.05;76.50;98659.00;2215074;79;21325;-81
2021/12/08 02:29:17;;;;;;;75.60;35.60;;;;;;;-2.94;76.51;98654.16;2204071;79;21380;-81
2021/12/08 02:48:37;;;;;;;60.07;30.23;;;;;;;-2.91;76.22;98647.95;2230451;79;21063;-81
2021/12/08 02:51:38;;;;;;;62.73;31.33;;;;;;;-2.88;76.18;98648.14;2223970;79;20959;-81
2021/12/08 02:54:39;;;;;;;67.60;35.33;;;;;;;-2.86;76.11;98640.56;2246785;79;21378;-80
2021/12/08 02:57:39;;;;;;;78.27;34.33;;;;;;;-2.85;76.03;98644.49;2220262;79;20970;-80
2021/12/08 03:00:40;;;;;;;83.10;35.50;;;;;;;-2.91;75.77;98637.34;2232823;78;20974;-80
2021/12/08 03:03:40;;;;;;;76.17;36.33;;;;;;;-2.95;75.76;98625.57;2245959;79;20978;-80
2021/12/08 03:06:41;;;;;;;70.67;32.77;;;;;;;-3.02;76.08;98625.59;2237644;79;20953;-82
2021/12/08 03:09:41;;;;;;;61.27;28.77;;;;;;;-3.06;76.18;98628.75;2198146;78;21077;-80
2021/12/08 03:12:42;;;;;;;68.87;33.60;;;;;;;-3.12;76.48;98629.66;2225404;79;21021;-81
2021/12/08 03:15:42;;;;;;;78.00;32.50;;;;;;;-3.15;76.70;98628.58;2251357;79;20945;-81
2021/12/08 03:18:43;;;;;;;59.13;26.70;;;;;;;-3.13;76.64;98618.95;2248684;78;20969;-80
2021/12/08 03:21:44;;;;;;;55.97;28.33;;;;;;;-3.09;76.74;98616.19;2234338;79;21089;-80
2021/12/08 03:24:47;;;;;;;52.13;26.33;;;;;;;-3.09;76.69;98605.58;2223542;79;21045;-80
2021/12/08 03:28:03;;;;;;;68.40;31.43;;;;;;;-3.13;76.57;98612.57;2245053;79;21001;-80
2021/12/08 03:33:55;;;;;;;43.13;21.80;;;;;;;-3.19;76.65;98607.09;2200978;79;21016;-82
2021/12/08 03:36:55;;;;;;;51.97;25.10;;;;;;;-3.23;76.84;98603.86;2224207;79;20965;-80
2021/12/08 03:39:56;;;;;;;45.73;22.07;;;;;;;-3.38;76.83;98611.45;2234408;79;21002;-79
2021/12/08 03:42:56;;;;;;;54.13;26.13;;;;;;;-3.47;77.04;98608.30;2233822;78;20990;-79
2021/12/08 03:45:57;;;;;;;41.67;22.57;;;;;;;-3.52;77.24;98607.13;2224710;79;21374;-80
2021/12/08 03:48:58;;;;;;;45.37;24.53;;;;;;;-3.62;77.34;98604.40;2208739;79;21036;-79
2021/12/08 03:51:59;;;;;;;45.90;23.60;;;;;;;-3.63;77.69;98597.92;2219198;79;21013;-81
2021/12/08 03:54:59;;;;;;;54.53;25.07;;;;;;;-3.66;77.82;98597.73;2251618;78;20977;-80
2021/12/08 03:58:00;;;;;;;46.73;23.03;;;;;;;-3.70;77.88;98598.33;2216871;79;20958;-80
2021/12/08 04:01:01;;;;;;;39.30;21.63;;;;;;;-3.86;78.03;98597.36;2206318;79;20973;-80
2021/12/08 04:04:03;;;;;;;55.90;22.77;;;;;;;-3.89;78.14;98593.34;2224888;79;21024;-80
2021/12/08 04:07:03;;;;;;;46.27;23.77;;;;;;;-3.92;78.24;98584.22;2239632;79;21005;-80
2021/12/08 04:10:06;;;;;;;43.13;21.27;;;;;;;-3.89;78.25;98572.05;2250822;78;21021;-80
2021/12/08 04:13:06;;;;;;;44.37;22.20;;;;;;;-3.90;78.42;98567.73;2214867;78;21072;-80
2021/12/08 04:16:07;;;;;;;40.47;21.53;;;;;;;-3.98;78.41;98564.70;2231240;79;21016;-80
2021/12/08 04:19:07;;;;;;;54.73;27.93;;;;;;;-4.00;78.44;98563.72;2237357;79;20946;-81
2021/12/08 04:22:08;;;;;;;48.27;24.63;;;;;;;-4.00;78.40;98575.59;2235503;78;21040;-80
2021/12/08 04:25:08;;;;;;;49.47;23.90;;;;;;;-3.95;78.29;98566.56;2221993;79;21021;-80
2021/12/08 04:28:09;;;;;;;44.13;22.10;;;;;;;-3.92;78.22;98566.37;2221842;79;21004;-81
2021/12/08 04:31:09;;;;;;;40.60;19.70;;;;;;;-3.91;78.23;98557.94;2215980;79;21033;-80
2021/12/08 04:34:13;;;;;;;40.00;21.00;;;;;;;-3.88;78.31;98553.42;2194564;79;21040;-80
2021/12/08 04:37:18;;;;;;;50.20;25.13;;;;;;;-3.87;78.09;98550.08;2239190;79;21478;-80
2021/12/08 04:40:28;;;;;;;40.90;20.97;;;;;;;-3.87;77.94;98548.41;2211998;79;21077;-79
2021/12/08 04:43:39;;;;;;;64.77;24.07;;;;;;;-3.80;78.12;98550.95;2244177;79;21074;-82
2021/12/08 04:53:08;;;;;;;48.73;23.50;;;;;;;-3.86;78.19;98536.16;2194332;79;21040;-80
2021/12/08 05:03:04;;;;;;;45.17;22.77;;;;;;;-3.79;77.92;98560.77;2208120;79;21044;-80
2021/12/08 05:08:50;;;;;;;59.37;23.37;;;;;;;-3.93;77.93;98585.39;2209007;79;21065;-80
2021/12/08 05:11:51;;;;;;;47.27;23.33;;;;;;;-3.97;77.83;98598.34;2213121;79;21344;-80
2021/12/08 05:14:51;;;;;;;44.20;21.70;;;;;;;-3.92;77.97;98608.83;2234683;79;21087;-79
2021/12/08 05:17:52;;;;;;;40.33;20.63;;;;;;;-3.87;77.77;98603.23;2203322;78;20966;-80
2021/12/08 05:20:52;;;;;;;39.77;20.73;;;;;;;-3.91;77.04;98604.22;2235463;79;20982;-80
2021/12/08 05:23:53;;;;;;;48.60;21.83;;;;;;;-3.97;77.21;98611.48;2222445;79;21408;-81
2021/12/08 05:26:54;;;;;;;45.43;22.70;;;;;;;-4.12;76.79;98606.28;2240221;79;20993;-80
2021/12/08 05:29:54;;;;;;;48.30;22.57;;;;;;;-4.24;77.02;98608.03;2244278;79;20989;-79
2021/12/08 05:32:55;;;;;;;40.13;20.83;;;;;;;-4.27;77.15;98607.44;2200632;79;21021;-78
2021/12/08 05:35:55;;;;;;;43.67;20.90;;;;;;;-4.20;77.27;98595.98;2205474;79;20994;-80
2021/12/08 05:38:56;;;;;;;41.73;20.87;;;;;;;-4.15;77.23;98595.88;2237115;79;21041;-79
2021/12/08 05:41:56;;;;;;;44.80;22.87;;;;;;;-4.12;76.90;98595.20;2236900;78;21024;-80
2021/12/08 05:44:57;;;;;;;47.30;23.37;;;;;;;-4.11;77.19;98590.20;2208802;79;21001;-79
2021/12/08 05:47:58;;;;;;;44.20;19.63;;;;;;;-4.17;76.98;98584.70;2202685;79;21029;-79
2021/12/08 05:50:58;;;;;;;44.80;21.50;;;;;;;-4.17;77.28;98584.70;2222396;79;20983;-80
2021/12/08 05:53:59;;;;;;;42.23;18.80;;;;;;;-4.16;77.17;98577.55;2233630;79;21012;-80
2021/12/08 05:57:00;;;;;;;44.13;21.10;;;;;;;-4.17;77.05;98585.59;2222556;79;21112;-78
2021/12/08 06:03:26;;;;;;;;;;;;;;;-4.21;77.08;98580.20;2242074;79;21086;-81
2021/12/08 06:06:26;;;;;;;42.03;19.67;;;;;;;-4.20;77.14;98571.38;2241250;79;20119;-81
2021/12/08 06:09:41;;;;;;;39.33;19.37;;;;;;;-4.21;77.46;98581.47;2249893;79;20989;-80
2021/12/08 06:12:42;;;;;;;42.53;21.50;;;;;;;-4.14;77.50;98582.36;2215546;78;21021;-80
2021/12/08 06:15:42;;;;;;;45.43;22.13;;;;;;;-4.10;77.09;98589.41;2213129;79;20969;-80
2021/12/08 06:18:43;;;;;;;43.47;20.23;;;;;;;-4.20;76.85;98584.51;2237885;79;20977;-80
2021/12/08 06:21:43;;;;;;;44.30;21.63;;;;;;;-4.24;77.54;98582.16;2223186;79;20973;-80
2021/12/08 06:24:44;;;;;;;42.00;20.87;;;;;;;-4.17;77.29;98581.77;2220274;78;20962;-80
2021/12/08 06:27:44;;;;;;;38.70;19.47;;;;;;;-4.23;77.30;98577.55;2247180;79;21385;-81
2021/12/08 06:30:49;;;;;;;50.80;20.77;;;;;;;-4.28;77.46;98574.20;2204500;79;21016;-81
2021/12/08 06:33:50;;;;;;;;;;;;;;;-4.30;77.60;98573.23;2233612;79;20979;-81
2021/12/08 06:36:50;;;;;;;38.90;18.70;;;;;;;-4.31;77.69;98571.07;2217667;79;20117;-80
2021/12/08 06:39:51;;;;;;;44.07;19.77;;;;;;;-4.23;78.02;98573.72;2214952;78;21440;-81
2021/12/08 06:42:51;;;;;;;34.83;17.10;;;;;;;-4.16;77.81;98575.00;2246025;78;20966;-81
2021/12/08 06:45:52;;;;;;;42.47;18.87;;;;;;;-4.20;77.28;98575.59;2213218;79;20974;-82
2021/12/08 06:48:53;;;;;;;39.57;19.70;;;;;;;-4.32;77.29;98570.97;2215422;79;20978;-82
2021/12/08 06:51:53;;;;;;;37.83;18.27;;;;;;;-4.39;77.67;98570.93;2225758;78;21029;-82
2021/12/08 06:54:54;;;;;;;41.97;19.37;;;;;;;-4.36;77.74;98572.41;2225230;79;21345;-82
2021/12/08 06:57:56;;;;;;;37.23;19.33;;;;;;;-4.35;77.71;98577.11;2214439;79;21354;-83
2021/12/08 07:01:15;;;;;;;47.40;21.10;;;;;;;-4.27;77.68;98575.58;2243884;79;20978;-81
2021/12/08 07:04:15;;;;;;;42.53;20.33;;;;;;;-4.19;77.75;98574.80;2205224;79;21028;-83
2021/12/08 07:07:12;;;;;;;45.10;20.30;;;;;;;-4.15;77.47;98579.31;2217718;79;21009;-82
2021/12/08 07:10:27;;;;;;;39.83;19.30;;;;;;;-4.12;77.61;98580.79;2205703;79;21444;-83
2021/12/08 07:13:27;;;;;;;45.57;21.83;;;;;;;-4.07;77.33;98575.59;2199305;79;20977;-80
2021/12/08 07:16:28;;;;;;;43.03;21.07;;;;;;;-4.07;77.31;98564.12;2237860;79;21623;-81
2021/12/08 07:19:34;;;;;;;42.30;20.27;;;;;;;-4.06;77.40;98562.45;2202716;79;21010;-82
2021/12/08 07:22:31;;;;;;;44.80;22.50;;;;;;;-4.02;77.35;98558.04;2222843;79;21416;-80
2021/12/08 07:25:33;;;;;;;48.90;22.37;;;;;;;-4.02;77.42;98567.84;2193269;79;20949;-81
2021/12/08 07:28:34;;;;;;;47.07;22.17;;;;;;;-3.97;77.44;98569.41;2243193;79;21022;-81
2021/12/08 07:31:36;;;;;;;42.87;21.93;;;;;;;-4.00;77.11;98575.20;2217813;79;20977;-83
2021/12/08 07:34:37;;;;;;;62.47;23.27;;;;;;;-3.94;77.23;98572.16;2233242;79;20969;-82
2021/12/08 07:37:37;;;;;;;41.70;20.17;;;;;;;-3.87;77.01;98561.16;2228634;79;21037;-80
2021/12/08 07:40:40;;;;;;;43.10;20.07;;;;;;;-3.85;76.62;98558.31;2250346;78;20993;-80
2021/12/08 07:43:43;;;;;;;42.83;22.27;;;;;;;-3.94;76.07;98551.36;2224329;79;20939;-82
2021/12/08 07:46:44;;;;;;;47.47;23.60;;;;;;;-4.05;76.32;98552.35;2246108;78;21463;-81
2021/12/08 07:49:44;;;;;;;54.90;24.80;;;;;;;-4.12;76.48;98554.02;2224158;79;20966;-79
2021/12/08 07:52:45;;;;;;;46.90;21.93;;;;;;;-4.19;77.22;98548.92;2218171;79;21052;-80
2021/12/08 07:55:46;;;;;;;43.30;20.50;;;;;;;-4.13;77.07;98553.92;2198610;78;21385;-81
2021/12/08 07:58:46;;;;;;;47.07;22.90;;;;;;;-4.07;77.06;98556.86;2235535;79;21425;-79
2021/12/08 08:01:47;;;;;;;44.70;22.27;;;;;;;-4.02;77.22;98560.59;2226942;79;21656;-81
2021/12/08 08:04:47;;;;;;;53.63;24.17;;;;;;;-3.97;77.12;98554.99;2204629;79;20982;-79
2021/12/08 08:07:48;;;;;;;39.00;21.00;;;;;;;-3.91;76.64;98554.11;2231185;79;21322;-80
2021/12/08 08:10:48;;;;;;;48.60;21.60;;;;;;;-3.90;76.94;98559.70;2237351;79;21358;-80
2021/12/08 08:13:49;;;;;;;43.67;21.07;;;;;;;-3.87;76.56;98561.16;2231016;79;20977;-80
2021/12/08 08:16:54;;;;;;;46.13;22.80;;;;;;;-3.85;76.53;98558.71;2244732;78;21024;-79
2021/12/08 08:19:52;;;;;;;41.17;21.67;;;;;;;-3.77;76.78;98556.64;2209799;79;21033;-79
2021/12/08 08:22:52;;;;;;;46.63;23.17;;;;;;;-3.77;76.28;98553.70;2250682;79;20973;-80
2021/12/08 08:25:53;;;;;;;47.87;24.63;;;;;;;-3.73;76.33;98570.08;2246556;79;21013;-79
2021/12/08 08:28:53;;;;;;;42.93;22.17;;;;;;;-3.68;76.37;98573.41;2201915;79;21004;-79
2021/12/08 08:31:59;;;;;;;38.10;19.40;;;;;;;-3.60;75.90;98576.43;2234180;78;21334;-81
2021/12/08 08:34:56;;;;;;;30.77;17.33;;;;;;;-3.59;75.10;98573.97;2214174;79;21036;-80
2021/12/08 08:37:57;;;;;;;31.87;16.47;;;;;;;-3.62;74.69;98570.35;2219925;78;21342;-80
2021/12/08 08:40:58;;;;;;;31.53;17.37;;;;;;;-3.67;74.40;98565.36;2199724;79;21354;-82
2021/12/08 08:43:58;;;;;;;31.30;15.43;;;;;;;-3.79;74.05;98565.86;2222059;79;20985;-80
2021/12/08 08:47:00;;;;;;;31.43;15.97;;;;;;;-3.89;74.50;98575.48;2230396;79;21008;-81
2021/12/08 08:50:01;;;;;;;31.10;15.90;;;;;;;-3.91;74.42;98593.63;2209573;79;21084;-79
2021/12/08 08:53:01;;;;;;;30.90;15.63;;;;;;;-3.99;74.23;98593.92;2241653;79;20945;-80
2021/12/08 08:56:02;;;;;;;31.50;16.83;;;;;;;-3.95;74.46;98585.30;2236500;79;21037;-79
2021/12/08 08:59:03;;;;;;;27.73;16.20;;;;;;;-3.90;74.54;98585.20;2208564;78;20992;-80
2021/12/08 09:02:07;;;;;;;26.13;13.40;;;;;;;-3.87;74.57;98572.64;2202616;79;21025;-83
2021/12/08 09:05:06;;;;;;;33.53;17.03;;;;;;;-3.88;74.17;98559.40;2249219;79;20997;-80
2021/12/08 09:11:12;;;;;;;50.80;19.10;;;;;;;-3.85;74.67;98567.24;2223932;79;21016;-79
2021/12/08 09:14:11;;;;;;;30.33;17.63;;;;;;;-3.75;75.01;98566.55;2223681;79;21044;-80
2021/12/08 09:17:11;;;;;;;28.23;15.83;;;;;;;-3.65;74.25;98559.95;2242412;78;20934;-79
2021/12/08 09:20:12;;;;;;;28.07;17.43;;;;;;;-3.63;74.37;98563.48;2241629;79;21689;-81
2021/12/08 09:23:16;;;;;;;26.27;15.30;;;;;;;-3.62;73.90;98562.70;2241447;79;21000;-80
2021/12/08 09:26:16;;;;;;;54.23;17.23;;;;;;;-3.54;73.83;98551.30;2236891;79;20962;-80
2021/12/08 09:29:17;;;;;;;29.03;15.67;;;;;;;-3.53;73.95;98547.56;2224519;78;21395;-80
2021/12/08 09:32:18;;;;;;;30.50;15.93;;;;;;;-3.52;73.64;98555.70;2208242;79;21020;-81
2021/12/08 09:35:19;;;;;;;26.50;15.77;;;;;;;-3.43;73.14;98555.81;2240811;79;21045;-80
2021/12/08 09:38:19;;;;;;;29.10;17.00;;;;;;;-3.47;72.14;98559.81;2235207;79;20993;-81
2021/12/08 09:41:26;;;;;;;29.80;15.83;;;;;;;-3.46;72.79;98550.13;2213325;78;21024;-80
2021/12/08 09:44:25;;;;;;;25.43;15.00;;;;;;;-3.44;73.02;98542.56;2221818;79;21080;-81
2021/12/08 09:47:29;;;;;;;26.27;14.70;;;;;;;-3.34;72.89;98538.12;2195054;79;21267;-82
2021/12/08 09:50:28;;;;;;;28.50;16.97;;;;;;;-3.31;71.98;98531.92;2223367;79;21512;-80
2021/12/08 09:53:28;;;;;;;24.80;14.63;;;;;;;-3.32;72.28;98537.81;2232299;78;21051;-82
2021/12/08 09:56:29;;;;;;;30.80;15.27;;;;;;;-3.36;72.26;98533.70;2239719;79;21041;-79
2021/12/08 09:59:32;;;;;;;26.87;15.63;;;;;;;-3.32;72.69;98526.33;2217682;79;21045;-80
2021/12/08 10:02:36;;;;;;;33.13;16.13;;;;;;;-3.24;73.06;98521.29;2250193;79;21053;-80
2021/12/08 10:05:34;;;;;;;30.00;17.00;;;;;;;-3.29;72.30;98518.86;2246437;79;21049;-80
2021/12/08 10:08:35;;;;;;;29.90;16.00;;;;;;;-3.29;72.99;98509.05;2208479;79;21041;-80
2021/12/08 10:11:35;;;;;;;28.37;17.13;;;;;;;-3.21;73.07;98502.72;2208280;79;21029;-80
2021/12/08 10:14:36;;;;;;;29.23;17.23;;;;;;;-3.17;73.12;98493.58;2211123;79;21102;-80
2021/12/08 10:17:37;;;;;;;32.00;17.43;;;;;;;-3.13;73.02;98489.14;2211754;79;21032;-80
2021/12/08 10:20:37;;;;;;;37.87;19.23;;;;;;;-3.02;73.63;98490.65;2229983;79;21005;-82
2021/12/08 10:23:38;;;;;;;36.87;18.03;;;;;;;-2.92;73.31;98491.27;2232577;78;21358;-81
2021/12/08 10:26:38;;;;;;;29.63;15.97;;;;;;;-2.78;73.45;98478.03;2212049;79;21044;-80
2021/12/08 10:29:38;;;;;;;29.17;15.07;;;;;;;-2.74;73.13;98479.97;2239175;79;21045;-80
2021/12/08 10:32:39;;;;;;;25.30;14.97;;;;;;;-2.69;73.02;98474.72;2248476;79;21005;-80
2021/12/08 10:35:42;;;;;;;30.50;16.67;;;;;;;-2.63;73.15;98466.12;2233148;79;21729;-80
2021/12/08 10:38:42;;;;;;;27.80;16.23;;;;;;;-2.51;73.04;98465.97;2249794;79;21404;-81
2021/12/08 10:41:42;;;;;;;29.47;17.33;;;;;;;-2.49;72.79;98462.23;2223099;79;21033;-79
2021/12/08 10:44:53;;;;;;;31.93;17.93;;;;;;;-2.44;72.97;98460.81;2218485;79;21002;-80
2021/12/08 10:47:47;;;;;;;31.53;17.20;;;;;;;-2.38;72.89;98463.31;2215876;79;20969;-80
2021/12/08 10:54:25;;;;;;;34.17;18.57;;;;;;;-2.55;72.63;98472.98;2215468;79;21039;-79
2021/12/08 10:57:24;;;;;;;40.37;17.77;;;;;;;-2.57;72.88;98470.34;2216044;79;21358;-79
2021/12/08 11:00:26;;;;;;;35.57;17.80;;;;;;;-1.07;77.74;98457.56;2223615;79;20981;-80
2021/12/08 11:03:26;;;;;;;33.43;18.23;;;;;;;-1.14;73.41;98456.77;2195837;79;21000;-80
2021/12/08 11:06:27;;;;;;;34.63;18.50;;;;;;;-1.36;72.49;98447.52;2230888;79;21005;-80
2021/12/08 11:09:29;;;;;;;31.77;18.00;;;;;;;-1.64;71.35;98442.23;2236512;79;20988;-81
2021/12/08 11:12:29;;;;;;;37.17;19.70;;;;;;;-1.86;72.32;98439.70;2228934;79;21115;-79
2021/12/08 11:15:30;;;;;;;38.03;18.43;;;;;;;-2.02;72.10;98436.32;2225423;79;21787;-81
2021/12/08 11:18:31;;;;;;;29.33;17.80;;;;;;;-2.21;72.20;98437.39;2243434;78;21415;-80
2021/12/08 11:21:36;;;;;;;93.63;19.07;;;;;;;-2.43;73.28;98439.17;2199772;79;21002;-81
2021/12/08 11:24:35;;;;;;;35.53;19.87;;;;;;;-2.47;74.09;98441.47;2244177;79;21064;-78
2021/12/08 11:27:38;;;;;;;44.50;18.33;;;;;;;-2.43;74.11;98441.73;2225284;78;21073;-80
2021/12/08 11:30:38;;;;;;;37.97;19.67;;;;;;;-2.37;74.10;98447.58;2205182;79;21076;-80
2021/12/08 11:33:42;;;;;;;36.33;19.70;;;;;;;-2.45;73.85;98446.27;2226047;79;21803;-80
2021/12/08 11:36:41;;;;;;;35.63;19.93;;;;;;;-2.49;74.26;98441.38;2216620;79;21014;-80
2021/12/08 11:39:42;;;;;;;39.50;21.40;;;;;;;-2.53;74.31;98437.30;2248960;79;21601;-80
2021/12/08 11:42:42;;;;;;;42.53;21.27;;;;;;;-2.55;74.68;98435.93;2227120;78;21045;-80
2021/12/08 11:45:43;;;;;;;43.83;22.10;;;;;;;-2.49;74.68;98430.28;2211087;79;21040;-79
2021/12/08 11:48:44;;;;;;;43.53;22.60;;;;;;;-2.39;74.86;98421.05;2210400;78;20954;-80
2021/12/08 11:51:44;;;;;;;40.63;21.67;;;;;;;-2.33;74.78;98416.27;2214473;78;21023;-82
2021/12/08 11:54:45;;;;;;;47.53;23.03;;;;;;;-2.24;74.75;98409.11;2243782;79;21127;-82
2021/12/08 11:57:47;;;;;;;45.27;22.37;;;;;;;-2.26;74.71;98403.91;2207416;79;21444;-81
2021/12/08 12:00:52;;;;;;;36.73;20.37;;;;;;;-2.14;74.87;98394.74;2226179;79;21065;-80
2021/12/08 12:03:49;;;;;;;39.03;22.50;;;;;;;-2.04;74.23;98391.00;2213956;79;21052;-81
2021/12/08 12:06:50;;;;;;;43.50;22.10;;;;;;;-2.03;74.21;98396.20;2216256;79;21075;-81
2021/12/08 12:09:51;;;;;;;39.00;21.53;;;;;;;-2.09;74.20;98389.48;2231578;78;20958;-80
2021/12/08 12:12:51;;;;;;;42.10;21.93;;;;;;;-2.08;74.37;98387.40;2226891;79;21344;-81
2021/12/08 12:15:52;;;;;;;36.30;19.17;;;;;;;-0.28;79.06;98379.84;2231394;78;21013;-80
2021/12/08 12:18:54;;;;;;;36.83;20.60;;;;;;;-0.48;72.28;98375.47;2210885;79;21099;-81
2021/12/08 12:21:56;;;;;;;37.67;19.30;;;;;;;-0.96;72.46;98386.37;2192774;79;20969;-80
2021/12/08 12:24:56;;;;;;;35.40;19.40;;;;;;;-1.23;72.58;98382.44;2242050;79;21004;-79
2021/12/08 12:27:57;;;;;;;38.73;21.33;;;;;;;-1.39;73.13;98375.27;2230654;79;20969;-79
2021/12/08 12:30:57;;;;;;;37.47;18.70;;;;;;;-1.51;72.98;98372.08;2235944;78;21413;-81
2021/12/08 12:33:58;;;;;;;32.83;18.07;;;;;;;-1.65;73.24;98377.77;2220496;79;20965;-78
2021/12/08 12:36:59;;;;;;;35.20;17.57;;;;;;;-1.72;73.98;98379.94;2237002;79;20977;-81
2021/12/08 12:39:59;;;;;;;33.83;19.33;;;;;;;-1.66;74.21;98380.25;2212464;79;21016;-80
2021/12/08 12:43:00;;;;;;;33.53;18.20;;;;;;;-1.58;73.99;98383.20;2213592;79;20989;-79
2021/12/08 12:46:00;;;;;;;26.73;15.77;;;;;;;-1.49;73.26;98384.96;2193974;79;21009;-79
2021/12/08 12:49:01;;;;;;;29.30;15.80;;;;;;;-1.65;73.09;98379.05;2193754;79;21381;-78
2021/12/08 12:52:01;;;;;;;26.60;15.50;;;;;;;-1.76;73.48;98378.86;2230012;79;21040;-81
2021/12/08 12:55:02;;;;;;;31.57;16.37;;;;;;;-1.79;73.61;98376.14;2248835;78;21033;-80
2021/12/08 12:58:03;;;;;;;27.13;17.47;;;;;;;-1.84;73.57;98380.55;2218791;79;21017;-79
2021/12/08 13:01:04;;;;;;;27.63;16.93;;;;;;;-1.85;73.64;98376.22;2250304;79;20969;-80
2021/12/08 13:04:12;;;;;;;25.53;15.50;;;;;;;-1.86;73.55;98372.78;2205779;79;20970;-81
2021/12/08 13:07:07;;;;;;;23.80;15.87;;;;;;;-1.86;73.75;98365.52;2224331;79;21068;-80
2021/12/08 13:10:08;;;;;;;23.10;14.90;;;;;;;-1.82;73.78;98367.43;2210721;79;21021;-79
2021/12/08 13:13:08;;;;;;;28.07;15.73;;;;;;;-1.69;73.91;98363.46;2216391;79;21037;-80
2021/12/08 13:16:09;;;;;;;23.87;14.00;;;;;;;-1.70;73.47;98359.14;2250284;78;21646;-81
2021/12/08 13:19:09;;;;;;;25.67;14.23;;;;;;;-1.61;73.74;98357.94;2210175;78;20973;-80
2021/12/08 13:22:10;;;;;;;23.60;14.23;;;;;;;-1.63;72.61;98354.82;2215544;79;20997;-80
2021/12/08 13:25:10;;;;;;;21.70;13.43;;;;;;;-1.68;73.12;98362.66;2237260;79;20965;-78
2021/12/08 13:28:11;;;;;;;20.00;13.47;;;;;;;-1.75;72.76;98360.16;2224132;78;21512;-78
2021/12/08 13:31:14;;;;;;;27.37;14.73;;;;;;;-1.89;72.98;98356.00;2205129;79;21034;-81
2021/12/08 13:34:14;;;;;;;19.80;12.90;;;;;;;-1.95;73.94;98360.39;2205528;79;21541;-78
2021/12/08 13:37:15;;;;;;;22.30;13.17;;;;;;;-1.92;73.51;98366.07;2198506;79;21040;-79
2021/12/08 13:40:15;;;;;;;35.13;17.50;;;;;;;-1.97;73.57;98368.39;2233056;79;20977;-79
2021/12/08 13:43:16;;;;;;;21.20;13.40;;;;;;;-2.02;73.73;98372.38;2240120;78;21361;-79
2021/12/08 13:46:17;;;;;;;27.47;15.07;;;;;;;-1.99;74.05;98376.78;2228582;79;21087;-79
2021/12/08 13:49:17;;;;;;;20.40;12.37;;;;;;;-1.99;74.21;98371.27;2243744;79;21005;-78
2021/12/08 13:52:18;;;;;;;24.07;13.13;;;;;;;-2.02;74.03;98371.10;2219713;78;20985;-79
2021/12/08 13:55:18;;;;;;;23.67;14.07;;;;;;;-2.14;74.07;98364.06;2249165;79;20989;-79
2021/12/08 13:58:19;;;;;;;22.67;12.93;;;;;;;-2.20;74.31;98363.73;2237808;79;20986;-80
2021/12/08 14:01:19;;;;;;;26.33;15.03;;;;;;;-2.31;74.38;98371.22;2233405;79;21032;-79
2021/12/08 14:04:20;;;;;;;23.13;14.17;;;;;;;-2.42;75.00;98371.92;2231068;79;20966;-79
2021/12/08 14:07:20;;;;;;;179.97;22.20;;;;;;;-2.40;75.41;98379.67;2231491;79;21008;-79
2021/12/08 14:10:21;;;;;;;23.93;13.10;;;;;;;-2.43;75.37;98383.34;2199394;78;21350;-80
2021/12/08 14:13:24;;;;;;;22.17;13.50;;;;;;;-2.44;75.57;98377.34;2239175;79;21052;-79
2021/12/08 14:16:24;;;;;;;23.30;14.03;;;;;;;-2.43;75.56;98384.22;2211778;79;20945;-79
2021/12/08 14:19:24;;;;;;;22.60;14.30;;;;;;;-2.43;75.50;98383.34;2212301;79;20961;-80
2021/12/08 14:22:25;;;;;;;19.03;12.33;;;;;;;-2.49;75.59;98386.44;2191611;79;21444;-79
2021/12/08 14:25:25;;;;;;;22.80;14.90;;;;;;;-2.49;75.92;98380.45;2211312;79;20966;-79
2021/12/08 14:28:26;;;;;;;25.73;14.23;;;;;;;-2.46;75.91;98385.72;2221088;78;21013;-79
2021/12/08 14:31:27;;;;;;;22.43;13.63;;;;;;;-2.46;76.16;98388.28;2214197;79;21013;-81
2021/12/08 14:34:27;;;;;;;19.60;13.37;;;;;;;-2.38;76.02;98392.14;2212776;79;20983;-79
2021/12/08 14:37:28;;;;;;;18.57;12.37;;;;;;;-2.35;76.02;98389.34;2215818;79;21703;-77
2021/12/08 14:40:28;;;;;;;24.07;14.83;;;;;;;-2.35;76.03;98393.58;2241988;78;20977;-79
2021/12/08 14:43:32;;;;;;;25.37;14.17;;;;;;;-2.41;76.00;98389.02;2240107;79;20994;-79